GABS

Senou Airport

Senou, Mali
TAF GABS 202300Z 2100/2206 18006KT 9999 FEW030 PROB40 TEMPO 2109/2115 08025G40KT 2000 BLDU TSRA BKN026 SCT033CB
Issued Valid From Valid To
Sep-20 @ 23:00 UTC
(2 hours ago)
Sep-21 @ 00:00 UTC
(41 minutes ago)
Sep-22 @ 06:00 UTC
(-1 days ago)
to
to
TAF GABS 202300Z 2100/2206 18006KT 9999 FEW030 PROB40 TEMPO 2109/2115 08025G40KT 2000 BLDU TSRA BKN026 SCT033CB
Issued Sep-20 @ 23:00 UTC
(2 hours ago)
Valid From Sep-21 @ 00:00 UTC
(41 minutes ago)
Valid To Sep-22 @ 06:00 UTC
(-1 days ago)
-
-